This is the latest recevied weather packets stored in our database for station/object K7DC. If no packets are shown the sender has not sent any weather packets the latest 10 day(s).
| Time | Temp. | Humidity | Pressure | Rain* | Wind** | Luminosity | Snow |
|---|---|---|---|---|---|---|---|
| 1777602442 | 20.56° C | 40% | 1008.3 hPa | 0 mm | - | 0 W/m² | - |
| 1777602139 | 20° C | 42% | 1008.1 hPa | 0 mm | - | 0 W/m² | - |
| 1777601834 | 19.44° C | 47% | 1007.9 hPa | 0 mm | - | 0 W/m² | - |
| 1777601530 | 18.89° C | 52% | 1007.8 hPa | 0 mm | - | 0 W/m² | - |
| 1777601225 | 18.33° C | 54% | 1007.7 hPa | 0 mm | - | 0 W/m² | - |
| 1777586958 | 30° C | 20% | 1006.6 hPa | 0 mm | - | 435 W/m² | - |
| 1777585748 | 31.11° C | 19% | 1006.8 hPa | 0 mm | - | 235 W/m² | - |
| 1777585144 | 31.11° C | 18% | 1007 hPa | 0 mm | - | 211 W/m² | - |
| 1777584839 | 32.22° C | 17% | 1007.3 hPa | 0 mm | - | 206 W/m² | - |
| 1777584537 | 32.78° C | 16% | 1007 hPa | 0 mm | - | 201 W/m² | - |
| 1777583933 | 33.33° C | 15% | 1007.3 hPa | 0 mm | - | 282 W/m² | - |
| 1777583629 | 33.89° C | 14% | 1007.5 hPa | 0 mm | - | 455 W/m² | - |
| 1777582720 | 35° C | 14% | 1007.9 hPa | 0 mm | - | 338 W/m² | - |
| 1777579385 | 32.78° C | 16% | 1008.8 hPa | 0 mm | - | 940 W/m² | - |
| 1777579081 | 32.78° C | 16% | 1008.7 hPa | 0 mm | - | 941 W/m² | - |
| 1777578165 | 32.22° C | 14% | 1009.3 hPa | 0 mm | - | 986 W/m² | - |
| 1777576341 | 31.67° C | 12% | 1009.9 hPa | 0 mm | - | 855 W/m² | - |
| 1777573611 | 28.33° C | 12% | 1010.6 hPa | 0 mm | - | 912 W/m² | - |
| 1777573308 | 28.89° C | 11% | 1010.8 hPa | 0 mm | - | 907 W/m² | - |
| 1777573004 | 28.33° C | 12% | 1010.8 hPa | 0 mm | - | 904 W/m² | - |
| 1777571797 | 26.67° C | 15% | 1011.4 hPa | 0 mm | - | 885 W/m² | - |
| 1777570582 | 27.22° C | 14% | 1011.8 hPa | 0 mm | - | 739 W/m² | - |
| 1777569063 | 25.56° C | 21% | 1012.1 hPa | 0 mm | - | 924 W/m² | - |
| 1777568154 | 24.44° C | 22% | 1011.9 hPa | 0 mm | - | 476 W/m² | - |
| 1777566943 | 23.89° C | 23% | 1011.9 hPa | 0 mm | - | 401 W/m² | - |
* Rain latest hour (hover to see other rain measurements)
** Current wind speed in m/s (hover to see current wind gust speed)